Terminal Aerodrome Forecast
Issued by NWS

Current Version | Previous Version | Text Only | Print | Product List | Glossary On
Versions: 1 2 3 4 5 6 7 8 9 10 11 12 13 14 15 16 17 18
000
FTUS44 KEPZ 181100
TAFLRU
TAF
KLRU 181120Z 1812/1912 03003KT P6SM -SHRA FEW020 SCT050 OVC100
      TEMPO 1813/1817 3SM SHRA BKN015 OVC025
     FM181800 23008KT 5SM -SHRA FEW015 BKN025 BKN040
     FM182200 24010KT P6SM VCSH SCT015 BKN025
     FM190700 22006KT P6SM FEW020 SCT050 BKN100=

USA.gov is the U.S. government's official web portal to all federal, state and local government web resources and services.